createdAt,value
2023-03-12T00:01:13.801Z,27.71
2023-03-12T00:05:13.873Z,27.68
2023-03-12T00:09:13.981Z,27.71
2023-03-12T00:13:14.076Z,27.70
2023-03-12T00:17:14.198Z,27.70
2023-03-12T00:21:14.251Z,27.70
2023-03-12T00:25:14.392Z,27.68
2023-03-12T00:29:14.524Z,27.68
2023-03-12T00:33:14.538Z,27.70
2023-03-12T00:37:14.608Z,27.67
2023-03-12T00:41:14.719Z,27.70
2023-03-12T00:45:14.872Z,27.68
2023-03-12T00:49:14.974Z,27.70
2023-03-12T00:53:15.077Z,27.68
2023-03-12T00:57:15.205Z,27.68
2023-03-12T01:01:15.381Z,27.65
2023-03-12T01:05:15.383Z,27.68
2023-03-12T01:09:15.528Z,27.65
2023-03-12T01:13:15.623Z,27.67
2023-03-12T01:17:15.756Z,27.65
2023-03-12T01:21:15.847Z,27.70
2023-03-12T01:25:15.973Z,27.65
2023-03-12T01:29:16.106Z,27.67
2023-03-12T01:33:16.294Z,27.67
2023-03-12T01:37:16.355Z,27.65
2023-03-12T01:41:16.448Z,27.65
2023-03-12T01:45:16.547Z,27.67
2023-03-12T01:49:16.676Z,27.67
2023-03-12T01:53:16.762Z,27.68
2023-03-12T01:57:16.928Z,27.67
2023-03-12T02:01:17.114Z,27.65
2023-03-12T02:05:17.189Z,27.65
2023-03-12T02:09:17.297Z,27.67
2023-03-12T02:13:17.375Z,27.67
2023-03-12T02:17:17.448Z,27.65
2023-03-12T02:21:17.574Z,27.65
2023-03-12T02:25:18.507Z,27.64
2023-03-12T02:29:17.799Z,27.64
2023-03-12T02:33:17.893Z,27.67
2023-03-12T02:37:18.050Z,27.65
2023-03-12T02:41:18.176Z,27.64
2023-03-12T02:45:18.254Z,27.62
2023-03-12T02:49:18.423Z,27.68
2023-03-12T02:53:18.512Z,27.67
2023-03-12T02:57:18.667Z,27.65
2023-03-12T03:01:19.607Z,27.65
2023-03-12T03:05:18.878Z,27.64
2023-03-12T03:09:18.968Z,27.64
2023-03-12T03:13:19.493Z,27.68
2023-03-12T03:17:19.207Z,27.64
2023-03-12T03:21:19.352Z,27.64
2023-03-12T03:25:19.435Z,27.67
2023-03-12T03:29:19.556Z,27.64
2023-03-12T03:33:19.984Z,27.64
2023-03-12T03:37:19.752Z,27.65
2023-03-12T03:41:19.877Z,27.64
2023-03-12T03:45:19.973Z,27.65
2023-03-12T03:49:20.077Z,27.62
2023-03-12T03:53:20.149Z,27.64
2023-03-12T03:57:21.041Z,27.64
2023-03-12T04:01:20.301Z,27.62
2023-03-12T04:05:20.508Z,27.64
2023-03-12T04:09:20.547Z,27.64
2023-03-12T04:13:20.555Z,27.64
2023-03-12T04:17:20.599Z,27.62
2023-03-12T04:21:20.669Z,27.64
2023-03-12T04:25:20.825Z,27.62
2023-03-12T04:29:20.796Z,27.64
2023-03-12T04:33:20.931Z,27.64
2023-03-12T04:37:20.954Z,27.62
2023-03-12T04:41:21.031Z,27.62
2023-03-12T04:45:21.099Z,27.64
2023-03-12T04:49:21.154Z,27.61
2023-03-12T04:53:21.248Z,27.64
2023-03-12T04:57:21.288Z,27.64
2023-03-12T05:01:21.364Z,27.61
2023-03-12T05:05:21.434Z,27.61
2023-03-12T05:09:21.522Z,27.61
2023-03-12T05:13:21.568Z,27.61
2023-03-12T05:17:21.611Z,27.65
2023-03-12T05:21:21.715Z,27.64
2023-03-12T05:25:21.760Z,27.64
2023-03-12T05:29:21.834Z,27.62
2023-03-12T05:33:21.854Z,27.61
2023-03-12T05:37:21.953Z,27.62
2023-03-12T05:41:22.006Z,27.62
2023-03-12T05:45:22.081Z,27.62
2023-03-12T05:49:22.121Z,27.61
2023-03-12T05:53:22.281Z,27.61
2023-03-12T05:57:22.263Z,27.61
2023-03-12T06:01:22.342Z,27.61
2023-03-12T06:05:22.401Z,27.61
2023-03-12T06:09:22.451Z,27.61
2023-03-12T06:13:22.564Z,27.61
2023-03-12T06:17:22.665Z,27.61
2023-03-12T06:21:22.701Z,27.64
2023-03-12T06:25:22.803Z,27.62
2023-03-12T06:29:22.907Z,27.65
2023-03-12T06:33:22.983Z,27.62
2023-03-12T06:37:23.059Z,27.65
2023-03-12T06:41:23.133Z,27.65
2023-03-12T06:45:23.214Z,27.68
2023-03-12T06:49:23.330Z,27.65
2023-03-12T06:53:23.407Z,27.65
2023-03-12T06:57:23.536Z,27.64
2023-03-12T07:01:23.574Z,27.68
2023-03-12T07:05:23.707Z,27.67
2023-03-12T07:09:23.716Z,27.70
2023-03-12T07:13:23.805Z,27.71
2023-03-12T07:17:23.862Z,27.71
2023-03-12T07:21:24.009Z,27.71
2023-03-12T07:25:24.026Z,27.75
2023-03-12T07:29:24.093Z,27.72
2023-03-12T07:33:24.282Z,27.74
2023-03-12T07:37:24.262Z,27.74
2023-03-12T07:41:24.374Z,27.75
2023-03-12T07:45:24.421Z,27.75
2023-03-12T07:49:24.463Z,27.80
2023-03-12T07:53:24.540Z,27.77
2023-03-12T07:57:24.618Z,27.81
2023-03-12T08:01:24.723Z,27.78
2023-03-12T08:05:24.719Z,27.81
2023-03-12T08:09:24.733Z,27.83
2023-03-12T08:13:24.794Z,27.87
2023-03-12T08:17:24.784Z,27.84
2023-03-12T08:21:24.772Z,27.83
2023-03-12T08:25:25.018Z,27.84
2023-03-12T08:29:24.819Z,27.85
2023-03-12T08:33:24.809Z,27.85
2023-03-12T08:37:24.871Z,27.81
2023-03-12T08:41:24.884Z,27.87
2023-03-12T08:45:24.889Z,27.90
2023-03-12T08:49:24.905Z,27.90
2023-03-12T08:53:24.872Z,27.90
2023-03-12T08:57:24.881Z,27.91
2023-03-12T09:01:24.891Z,27.94
2023-03-12T09:05:24.870Z,27.94
2023-03-12T09:09:24.871Z,27.95
2023-03-12T09:13:27.305Z,27.98
2023-03-12T09:17:25.848Z,27.97
2023-03-12T09:21:24.813Z,28.00
2023-03-12T09:25:24.813Z,28.00
2023-03-12T09:29:24.748Z,28.02
2023-03-12T09:33:24.703Z,28.01
2023-03-12T09:37:24.716Z,28.04
2023-03-12T09:41:24.665Z,28.05
2023-03-12T09:45:24.599Z,28.04
2023-03-12T09:49:24.561Z,28.04
2023-03-12T09:53:24.540Z,28.08
2023-03-12T09:57:24.528Z,28.12
2023-03-12T10:01:24.472Z,28.15
2023-03-12T10:05:24.651Z,28.15
2023-03-12T10:09:24.463Z,28.13
2023-03-12T10:13:24.492Z,28.18
2023-03-12T10:17:24.469Z,28.16
2023-03-12T10:21:24.505Z,28.18
2023-03-12T10:25:24.668Z,28.18
2023-03-12T10:29:24.443Z,28.19
2023-03-12T10:33:24.466Z,28.18
2023-03-12T10:37:24.437Z,28.19
2023-03-12T10:41:24.430Z,28.21
2023-03-12T10:45:24.429Z,28.22
2023-03-12T10:49:24.436Z,28.19
2023-03-12T10:53:24.500Z,28.22
2023-03-12T10:57:24.613Z,28.26
2023-03-12T11:01:24.806Z,28.28
2023-03-12T11:05:24.886Z,28.29
2023-03-12T11:09:25.051Z,28.32
2023-03-12T11:13:25.153Z,28.28
2023-03-12T11:17:25.281Z,28.31
2023-03-12T11:21:25.396Z,28.32
2023-03-12T11:25:25.520Z,28.36
2023-03-12T11:29:25.655Z,28.36
2023-03-12T11:33:25.806Z,28.38
2023-03-12T11:37:26.007Z,28.45
2023-03-12T11:41:26.009Z,28.48
2023-03-12T11:45:25.950Z,28.55
2023-03-12T11:49:25.912Z,28.59
2023-03-12T11:53:25.892Z,28.60
2023-03-12T11:57:25.845Z,28.62
2023-03-12T12:01:25.844Z,28.62
2023-03-12T12:05:25.790Z,28.60
2023-03-12T12:09:25.765Z,28.64
2023-03-12T12:13:25.697Z,28.64
2023-03-12T12:17:25.659Z,28.63
2023-03-12T12:21:25.629Z,28.63
2023-03-12T12:25:25.595Z,28.63
2023-03-12T12:29:25.568Z,28.66
2023-03-12T12:33:25.758Z,28.64
2023-03-12T12:37:25.591Z,28.67
2023-03-12T12:41:25.777Z,28.66
2023-03-12T12:45:25.962Z,28.66
2023-03-12T12:49:26.092Z,28.64
2023-03-12T12:53:26.246Z,28.64
2023-03-12T12:57:26.223Z,28.64
2023-03-12T13:01:27.810Z,28.63
2023-03-12T13:05:26.154Z,28.66
2023-03-12T13:09:26.090Z,28.64
2023-03-12T13:13:27.544Z,28.62
2023-03-12T13:17:26.268Z,28.62
2023-03-12T13:21:26.324Z,28.63
2023-03-12T13:25:26.220Z,28.60
2023-03-12T13:29:26.164Z,28.59
2023-03-12T13:33:26.139Z,28.56
2023-03-12T13:37:26.110Z,28.56
2023-03-12T13:41:26.809Z,28.56
2023-03-12T13:45:26.075Z,28.55
2023-03-12T13:49:25.997Z,28.53
2023-03-12T13:53:26.007Z,28.53
2023-03-12T13:57:26.180Z,28.53
2023-03-12T14:01:26.435Z,28.53
2023-03-12T14:05:26.412Z,28.51
2023-03-12T14:09:26.325Z,28.52
2023-03-12T14:13:26.295Z,28.52
2023-03-12T14:17:26.277Z,28.51
2023-03-12T14:21:26.276Z,28.49
2023-03-12T14:25:26.205Z,28.51
2023-03-12T14:29:26.175Z,28.46
2023-03-12T14:33:26.119Z,28.45
2023-03-12T14:37:26.109Z,28.48
2023-03-12T14:41:26.065Z,28.45
2023-03-12T14:45:26.133Z,28.46
2023-03-12T14:49:26.366Z,28.42
2023-03-12T14:53:26.546Z,28.42
2023-03-12T14:57:26.782Z,28.42
2023-03-12T15:01:27.034Z,28.41
2023-03-12T15:05:27.191Z,28.39
2023-03-12T15:09:27.376Z,28.36
2023-03-12T15:13:27.590Z,28.36
2023-03-12T15:17:27.806Z,28.35
2023-03-12T15:21:27.999Z,28.36
2023-03-12T15:25:28.289Z,28.34
2023-03-12T15:29:28.608Z,28.34
2023-03-12T15:33:28.634Z,28.31
2023-03-12T15:37:28.878Z,28.31
2023-03-12T15:41:29.341Z,28.31
2023-03-12T15:45:29.475Z,28.29
2023-03-12T15:49:29.519Z,28.28
2023-03-12T15:53:29.481Z,28.26
2023-03-12T15:57:29.428Z,28.26
2023-03-12T16:01:30.434Z,28.23
2023-03-12T16:05:29.406Z,28.28
2023-03-12T16:09:29.316Z,28.23
2023-03-12T16:13:29.286Z,28.22
2023-03-12T16:17:29.269Z,28.22
2023-03-12T16:21:29.239Z,28.21
2023-03-12T16:25:29.412Z,28.22
2023-03-12T16:29:29.606Z,28.18
2023-03-12T16:33:29.824Z,28.18
2023-03-12T16:37:29.790Z,28.18
2023-03-12T16:41:29.769Z,28.16
2023-03-12T16:45:29.700Z,28.16
2023-03-12T16:49:29.664Z,28.15
2023-03-12T16:53:29.634Z,28.15
2023-03-12T16:57:29.605Z,28.13
2023-03-12T17:01:29.622Z,28.11
2023-03-12T17:05:29.551Z,28.12
2023-03-12T17:09:29.513Z,28.12
2023-03-12T17:13:29.483Z,28.12
2023-03-12T17:17:29.455Z,28.09
2023-03-12T17:21:29.569Z,28.09
2023-03-12T17:25:29.698Z,28.07
2023-03-12T17:29:29.848Z,28.08
2023-03-12T17:33:29.990Z,28.09
2023-03-12T17:37:30.084Z,28.07
2023-03-12T17:41:30.155Z,28.07
2023-03-12T17:45:30.239Z,28.07
2023-03-12T17:49:30.322Z,28.07
2023-03-12T17:53:30.375Z,28.05
2023-03-12T17:57:30.375Z,28.07
2023-03-12T18:01:30.368Z,28.01
2023-03-12T18:05:30.443Z,28.04
2023-03-12T18:09:30.394Z,28.02
2023-03-12T18:13:30.432Z,28.04
2023-03-12T18:17:30.360Z,28.02
2023-03-12T18:21:30.380Z,28.00
2023-03-12T18:25:30.384Z,28.01
2023-03-12T18:29:30.463Z,28.01
2023-03-12T18:33:30.535Z,28.01
2023-03-12T18:37:30.454Z,28.00
2023-03-12T18:41:30.526Z,27.98
2023-03-12T18:45:30.493Z,28.00
2023-03-12T18:49:30.501Z,28.00
2023-03-12T18:53:30.457Z,27.98
2023-03-12T18:57:30.475Z,27.95
2023-03-12T19:01:30.547Z,27.95
2023-03-12T19:05:30.462Z,27.94
2023-03-12T19:09:30.434Z,27.94
2023-03-12T19:13:30.434Z,27.95
2023-03-12T19:17:30.403Z,27.92
2023-03-12T19:21:30.401Z,27.94
2023-03-12T19:25:30.428Z,27.91
2023-03-12T19:29:30.445Z,27.95
2023-03-12T19:33:30.404Z,27.90
2023-03-12T19:37:30.392Z,27.91
2023-03-12T19:41:30.366Z,27.88
2023-03-12T19:45:30.406Z,27.90
2023-03-12T19:49:30.370Z,27.90
2023-03-12T19:53:30.400Z,27.88
2023-03-12T19:57:30.423Z,27.88
2023-03-12T20:01:30.439Z,27.88
2023-03-12T20:05:30.412Z,27.88
2023-03-12T20:09:30.427Z,27.88
2023-03-12T20:13:30.442Z,27.85
2023-03-12T20:17:30.449Z,27.87
2023-03-12T20:21:30.883Z,27.88
2023-03-12T20:25:30.460Z,27.85
2023-03-12T20:29:30.555Z,27.85
2023-03-12T20:33:30.468Z,27.85
2023-03-12T20:37:30.506Z,27.84
2023-03-12T20:43:08.773Z,27.83
2023-03-12T20:47:08.776Z,27.83
2023-03-12T20:51:08.727Z,27.84
2023-03-12T20:55:08.677Z,27.85
2023-03-12T20:59:08.661Z,27.81
2023-03-12T21:03:08.602Z,27.83
2023-03-12T21:07:08.580Z,27.81
2023-03-12T21:11:08.583Z,27.81
2023-03-12T21:15:08.512Z,27.83
2023-03-12T21:19:08.499Z,27.78
2023-03-12T21:23:08.466Z,27.80
2023-03-12T21:27:08.416Z,27.80
2023-03-12T21:31:08.417Z,27.83
2023-03-12T21:35:08.334Z,27.81
2023-03-12T21:39:08.302Z,27.81
2023-03-12T21:43:08.277Z,27.81
2023-03-12T21:47:08.263Z,27.78
2023-03-12T21:51:08.228Z,27.80
2023-03-12T21:55:08.172Z,27.75
2023-03-12T21:59:08.151Z,27.78
2023-03-12T22:03:08.126Z,27.78
2023-03-12T22:07:08.067Z,27.77
2023-03-12T22:11:08.036Z,27.77
2023-03-12T22:15:07.988Z,27.77
2023-03-12T22:19:07.972Z,27.77
2023-03-12T22:23:07.911Z,27.77
2023-03-12T22:27:07.868Z,27.75
2023-03-12T22:31:07.934Z,27.75
2023-03-12T22:35:07.809Z,27.74
2023-03-12T22:39:07.780Z,27.75
2023-03-12T22:43:07.732Z,27.74
2023-03-12T22:47:07.698Z,27.74
2023-03-12T22:51:07.659Z,27.74
2023-03-12T22:55:07.685Z,27.72
2023-03-12T22:59:07.693Z,27.74
2023-03-12T23:03:07.773Z,27.74
2023-03-12T23:07:14.149Z,27.75
2023-03-12T23:11:09.143Z,27.72
2023-03-12T23:15:07.742Z,27.74
2023-03-12T23:19:07.712Z,27.72
2023-03-12T23:23:07.647Z,27.72
2023-03-12T23:27:07.628Z,27.72
2023-03-12T23:31:07.688Z,27.71
2023-03-12T23:35:07.655Z,27.71
2023-03-12T23:39:07.720Z,27.70
2023-03-12T23:43:07.798Z,27.70
2023-03-12T23:47:07.877Z,27.70
2023-03-12T23:51:07.914Z,27.70
2023-03-12T23:55:07.980Z,27.70
2023-03-12T23:59:08.119Z,27.68
